createdAt,value
2018-08-09T00:01:06.822Z,13.28
2018-08-09T00:03:36.216Z,13.03
2018-08-09T00:06:05.570Z,12.85
2018-08-09T00:08:35.060Z,12.58
2018-08-09T00:11:04.692Z,13.10
2018-08-09T00:13:34.274Z,11.85
2018-08-09T00:16:04.057Z,13.30
2018-08-09T00:18:33.381Z,12.15
2018-08-09T00:21:03.539Z,11.73
2018-08-09T00:23:33.118Z,11.43
2018-08-09T00:26:02.787Z,12.43
2018-08-09T00:28:32.317Z,11.57
2018-08-09T00:31:01.982Z,11.00
2018-08-09T00:33:31.375Z,11.05
2018-08-09T00:36:01.091Z,11.83
2018-08-09T00:38:30.670Z,10.78
2018-08-09T00:41:00.167Z,10.38
2018-08-09T00:43:29.580Z,11.25
2018-08-09T00:45:59.195Z,10.63
2018-08-09T00:48:28.730Z,11.12
2018-08-09T00:50:58.636Z,10.63
2018-08-09T00:53:28.205Z,11.10
2018-08-09T00:55:57.556Z,10.65
2018-08-09T00:58:27.023Z,10.10
2018-08-09T01:00:56.570Z,10.10
2018-08-09T01:03:26.074Z,10.00
2018-08-09T01:05:55.572Z,9.80
2018-08-09T01:08:24.937Z,9.63
2018-08-09T01:10:54.359Z,8.90
2018-08-09T01:13:23.816Z,9.65
2018-08-09T01:15:53.246Z,10.15
2018-08-09T01:18:22.738Z,9.63
2018-08-09T01:20:52.348Z,9.90
2018-08-09T01:23:22.037Z,8.28
2018-08-09T01:25:51.495Z,7.55
2018-08-09T01:28:20.927Z,7.30
2018-08-09T01:30:50.375Z,7.17
2018-08-09T01:33:19.924Z,7.10
2018-08-09T01:35:49.496Z,6.58
2018-08-09T01:38:18.969Z,6.65
2018-08-09T01:40:48.614Z,6.75
2018-08-09T01:43:28.957Z,7.55
2018-08-09T01:45:58.566Z,7.15
2018-08-09T01:48:28.507Z,7.15
2018-08-09T01:50:57.797Z,7.08
2018-08-09T01:53:27.440Z,6.80
2018-08-09T01:55:56.956Z,6.33
2018-08-09T01:58:26.297Z,6.53
2018-08-09T02:00:55.702Z,6.40
2018-08-09T02:03:25.170Z,6.75
2018-08-09T02:05:54.582Z,6.50
2018-08-09T02:08:24.090Z,6.12
2018-08-09T02:10:53.629Z,6.67
2018-08-09T02:13:23.195Z,6.58
2018-08-09T02:15:52.641Z,6.35
2018-08-09T02:18:22.244Z,6.62
2018-08-09T02:20:51.857Z,6.70
2018-08-09T02:23:21.391Z,6.25
2018-08-09T02:25:51.205Z,6.85
2018-08-09T02:28:20.655Z,6.53
2018-08-09T02:30:50.002Z,6.55
2018-08-09T02:33:19.737Z,6.58
2018-08-09T02:35:49.311Z,6.12
2018-08-09T02:38:18.922Z,6.17
2018-08-09T02:40:48.439Z,6.60
2018-08-09T02:43:17.878Z,5.33
2018-08-09T02:45:47.610Z,5.90
2018-08-09T02:48:17.267Z,6.40
2018-08-09T02:50:47.134Z,6.12
2018-08-09T02:53:16.565Z,6.33
2018-08-09T02:55:46.137Z,5.95
2018-08-09T02:58:15.742Z,5.72
2018-08-09T03:00:45.730Z,5.90
2018-08-09T03:03:15.352Z,5.22
2018-08-09T03:05:44.802Z,6.50
2018-08-09T03:08:14.459Z,7.22
2018-08-09T03:10:43.884Z,8.30
2018-08-09T03:13:13.413Z,8.65
2018-08-09T03:15:43.143Z,9.18
2018-08-09T03:18:13.183Z,9.45
2018-08-09T03:20:42.736Z,9.13
2018-08-09T03:23:12.852Z,8.80
2018-08-09T03:25:42.388Z,8.83
2018-08-09T03:28:12.058Z,8.43
2018-08-09T03:30:41.601Z,8.00
2018-08-09T03:33:10.978Z,7.72
2018-08-09T03:35:40.624Z,7.15
2018-08-09T03:38:10.213Z,7.35
2018-08-09T03:40:40.386Z,6.95
2018-08-09T03:43:09.854Z,7.25
2018-08-09T03:45:39.299Z,7.00
2018-08-09T03:48:08.620Z,7.25
2018-08-09T03:50:38.205Z,8.48
2018-08-09T03:53:07.724Z,7.30
2018-08-09T03:55:37.600Z,8.33
2018-08-09T03:58:07.613Z,8.10
2018-08-09T04:00:37.096Z,8.10
2018-08-09T04:03:06.857Z,8.63
2018-08-09T04:05:36.379Z,8.20
2018-08-09T04:08:05.967Z,8.25
2018-08-09T04:10:35.677Z,9.20
2018-08-09T04:13:05.290Z,9.25
2018-08-09T04:15:34.859Z,8.93
2018-08-09T04:18:04.555Z,8.93
2018-08-09T04:20:34.072Z,9.43
2018-08-09T04:23:03.677Z,8.98
2018-08-09T04:25:33.289Z,9.10
2018-08-09T04:28:02.794Z,8.50
2018-08-09T04:30:32.304Z,9.00
2018-08-09T04:33:01.806Z,9.20
2018-08-09T04:35:31.235Z,8.63
2018-08-09T04:38:01.280Z,7.92
2018-08-09T04:40:31.043Z,8.40
2018-08-09T04:43:00.521Z,8.55
2018-08-09T04:45:30.092Z,8.58
2018-08-09T04:47:59.805Z,8.83
2018-08-09T04:50:29.419Z,8.43
2018-08-09T04:52:58.871Z,8.45
2018-08-09T04:55:28.434Z,8.50
2018-08-09T04:57:57.951Z,8.53
2018-08-09T05:00:30.599Z,8.03
2018-08-09T05:03:00.125Z,7.92
2018-08-09T05:05:29.678Z,8.40
2018-08-09T05:07:59.178Z,8.15
2018-08-09T05:10:28.772Z,8.93
2018-08-09T05:12:58.524Z,8.63
2018-08-09T05:15:28.282Z,8.15
2018-08-09T05:17:57.911Z,8.53
2018-08-09T05:20:28.183Z,8.00
2018-08-09T05:22:57.624Z,8.78
2018-08-09T05:25:27.283Z,8.18
2018-08-09T05:27:56.839Z,7.90
2018-08-09T05:30:26.447Z,7.65
2018-08-09T05:32:55.871Z,8.18
2018-08-09T05:35:25.427Z,7.40
2018-08-09T05:37:55.209Z,8.53
2018-08-09T05:40:24.790Z,7.95
2018-08-09T05:42:54.240Z,8.00
2018-08-09T05:45:23.563Z,7.92
2018-08-09T05:47:53.831Z,7.87
2018-08-09T05:50:23.314Z,7.95
2018-08-09T05:52:52.981Z,7.90
2018-08-09T05:55:22.602Z,7.85
2018-08-09T05:57:52.092Z,7.12
2018-08-09T06:00:21.499Z,7.37
2018-08-09T06:02:51.446Z,7.67
2018-08-09T06:05:21.107Z,7.20
2018-08-09T06:07:51.562Z,7.25
2018-08-09T06:10:21.184Z,6.97
2018-08-09T06:12:50.772Z,6.35
2018-08-09T06:15:20.589Z,6.90
2018-08-09T06:17:50.082Z,6.42
2018-08-09T06:20:19.747Z,6.55
2018-08-09T06:22:49.222Z,6.03
2018-08-09T06:25:18.869Z,6.60
2018-08-09T06:27:48.338Z,6.42
2018-08-09T06:30:17.812Z,6.47
2018-08-09T06:32:47.379Z,6.90
2018-08-09T06:35:16.764Z,6.33
2018-08-09T06:37:46.332Z,7.22
2018-08-09T06:40:16.246Z,7.50
2018-08-09T06:42:45.926Z,7.67
2018-08-09T06:45:15.381Z,7.42
2018-08-09T06:47:44.908Z,6.65
2018-08-09T06:50:14.599Z,7.35
2018-08-09T06:52:44.232Z,6.50
2018-08-09T06:55:13.713Z,6.72
2018-08-09T06:57:43.450Z,6.53
2018-08-09T07:00:13.829Z,6.80
2018-08-09T07:02:43.762Z,6.17
2018-08-09T07:05:13.306Z,6.78
2018-08-09T07:07:43.040Z,6.17
2018-08-09T07:10:12.929Z,6.78
2018-08-09T07:12:42.613Z,6.55
2018-08-09T07:15:13.251Z,6.42
2018-08-09T07:17:43.397Z,6.72
2018-08-09T07:20:12.923Z,7.15
2018-08-09T07:22:42.637Z,6.83
2018-08-09T07:25:12.247Z,6.87
2018-08-09T07:27:41.788Z,7.65
2018-08-09T07:30:13.316Z,7.33
2018-08-09T07:32:42.971Z,6.47
2018-08-09T07:35:12.663Z,6.87
2018-08-09T07:37:42.275Z,6.45
2018-08-09T07:40:12.966Z,6.67
2018-08-09T07:42:43.594Z,5.90
2018-08-09T07:45:14.781Z,6.17
2018-08-09T07:47:44.487Z,5.80
2018-08-09T07:50:14.330Z,5.50
2018-08-09T07:52:44.043Z,6.33
2018-08-09T07:55:13.798Z,6.17
2018-08-09T07:57:43.556Z,5.95
2018-08-09T08:00:13.554Z,6.22
2018-08-09T08:02:43.361Z,5.53
2018-08-09T08:05:13.046Z,5.75
2018-08-09T08:07:42.606Z,6.17
2018-08-09T08:10:12.091Z,6.37
2018-08-09T08:12:41.649Z,5.55
2018-08-09T08:15:11.743Z,6.17
2018-08-09T08:17:41.345Z,6.45
2018-08-09T08:20:11.141Z,6.65
2018-08-09T08:22:41.648Z,6.42
2018-08-09T08:25:11.364Z,6.45
2018-08-09T08:27:41.075Z,6.65
2018-08-09T08:30:12.740Z,6.42
2018-08-09T08:32:42.946Z,6.85
2018-08-09T08:35:12.645Z,7.12
2018-08-09T08:37:42.614Z,6.97
2018-08-09T08:40:12.187Z,8.13
2018-08-09T08:42:41.620Z,8.85
2018-08-09T08:45:13.290Z,8.60
2018-08-09T08:47:43.287Z,9.40
2018-08-09T08:50:13.281Z,9.48
2018-08-09T08:52:42.722Z,9.13
2018-08-09T08:55:13.093Z,9.53
2018-08-09T08:57:42.579Z,9.70
2018-08-09T09:00:13.514Z,9.43
2018-08-09T09:02:43.111Z,10.70
2018-08-09T09:05:13.583Z,11.12
2018-08-09T09:07:43.106Z,10.53
2018-08-09T09:10:13.722Z,11.60
2018-08-09T09:12:43.513Z,12.28
2018-08-09T09:15:14.900Z,12.68
2018-08-09T09:17:44.931Z,13.93
2018-08-09T09:20:16.571Z,13.13
2018-08-09T09:22:46.194Z,13.13
2018-08-09T09:25:15.865Z,15.40
2018-08-09T09:27:45.530Z,12.70
2018-08-09T09:30:16.593Z,15.48
2018-08-09T09:32:46.446Z,14.87
2018-08-09T09:35:16.065Z,14.87
2018-08-09T09:37:45.856Z,14.93
2018-08-09T09:40:15.375Z,13.13
2018-08-09T09:42:45.522Z,14.05
2018-08-09T09:45:15.140Z,13.43
2018-08-09T09:47:44.714Z,15.50
2018-08-09T09:50:14.455Z,13.85
2018-08-09T09:52:43.946Z,13.80
2018-08-09T09:55:13.381Z,13.78
2018-08-09T09:57:42.974Z,13.78
2018-08-09T10:00:17.341Z,13.50
2018-08-09T10:02:47.763Z,13.65
2018-08-09T10:05:17.278Z,12.35
2018-08-09T10:07:46.840Z,12.70
2018-08-09T10:10:16.540Z,12.68
2018-08-09T10:12:46.201Z,14.05
2018-08-09T10:15:15.832Z,14.70
2018-08-09T10:17:45.379Z,14.40
2018-08-09T10:20:14.800Z,14.35
2018-08-09T10:22:44.536Z,14.10
2018-08-09T10:25:14.063Z,14.43
2018-08-09T10:27:43.622Z,14.00
2018-08-09T10:30:13.138Z,13.88
2018-08-09T10:32:42.719Z,15.28
2018-08-09T10:35:13.168Z,14.70
2018-08-09T10:37:42.758Z,15.05
2018-08-09T10:40:12.325Z,14.38
2018-08-09T10:42:41.917Z,13.43
2018-08-09T10:45:12.364Z,13.65
2018-08-09T10:47:41.926Z,14.45
2018-08-09T10:50:11.533Z,14.30
2018-08-09T10:52:41.163Z,14.13
2018-08-09T10:55:11.034Z,14.53
2018-08-09T10:57:40.536Z,14.73
2018-08-09T11:00:12.614Z,14.33
2018-08-09T11:02:42.312Z,15.13
2018-08-09T11:05:11.778Z,14.58
2018-08-09T11:07:41.515Z,14.73
2018-08-09T11:10:11.638Z,15.18
2018-08-09T11:12:41.148Z,14.03
2018-08-09T11:15:13.193Z,15.38
2018-08-09T11:17:43.287Z,14.33
2018-08-09T11:20:13.805Z,14.45
2018-08-09T11:22:43.418Z,13.83
2018-08-09T11:25:13.009Z,14.85
2018-08-09T11:27:42.657Z,14.28
2018-08-09T11:30:12.204Z,15.03
2018-08-09T11:32:41.740Z,14.38
2018-08-09T11:35:11.234Z,14.35
2018-08-09T11:37:40.739Z,14.10
2018-08-09T11:40:10.497Z,13.43
2018-08-09T11:42:40.274Z,14.00
2018-08-09T11:45:09.802Z,13.60
2018-08-09T11:47:39.766Z,13.80
2018-08-09T11:50:09.355Z,13.68
2018-08-09T11:52:38.912Z,12.85
2018-08-09T11:55:08.422Z,13.00
2018-08-09T11:57:38.091Z,13.48
2018-08-09T12:00:08.813Z,12.60
2018-08-09T12:02:38.322Z,14.07
2018-08-09T12:05:07.971Z,13.65
2018-08-09T12:07:37.445Z,13.18
2018-08-09T12:10:07.215Z,13.43
2018-08-09T12:12:36.708Z,12.88
2018-08-09T12:15:07.757Z,12.55
2018-08-09T12:17:37.455Z,13.00
2018-08-09T12:20:07.459Z,13.18
2018-08-09T12:22:36.849Z,13.90
2018-08-09T12:25:06.637Z,12.98
2018-08-09T12:27:36.669Z,13.35
2018-08-09T12:30:10.038Z,12.30
2018-08-09T12:32:39.872Z,13.10
2018-08-09T12:35:14.441Z,12.98
2018-08-09T12:37:44.737Z,12.03
2018-08-09T12:40:14.277Z,12.18
2018-08-09T12:42:43.700Z,10.60
2018-08-09T12:45:13.560Z,10.20
2018-08-09T12:47:44.041Z,11.08
2018-08-09T12:50:14.634Z,10.43
2018-08-09T12:52:44.932Z,9.60
2018-08-09T12:55:15.149Z,10.80
2018-08-09T12:57:44.689Z,10.03
2018-08-09T13:00:15.154Z,10.68
2018-08-09T13:02:44.737Z,10.30
2018-08-09T13:05:14.511Z,9.95
2018-08-09T13:07:44.029Z,10.43
2018-08-09T13:10:14.605Z,10.63
2018-08-09T13:12:44.439Z,10.72
2018-08-09T13:15:14.775Z,11.00
2018-08-09T13:17:45.737Z,10.50
2018-08-09T13:20:18.367Z,10.55
2018-08-09T13:22:49.042Z,9.98
2018-08-09T13:25:18.627Z,11.40
2018-08-09T13:27:48.734Z,10.90
2018-08-09T13:30:18.282Z,10.18
2018-08-09T13:32:48.511Z,11.10
2018-08-09T13:35:18.728Z,10.72
2018-08-09T13:37:48.369Z,11.38
2018-08-09T13:40:18.056Z,11.15
2018-08-09T13:42:47.704Z,11.57
2018-08-09T13:45:17.820Z,11.40
2018-08-09T13:47:47.539Z,11.18
2018-08-09T13:50:17.248Z,11.38
2018-08-09T13:52:46.706Z,11.22
2018-08-09T13:55:16.431Z,10.90
2018-08-09T13:57:46.106Z,11.25
2018-08-09T14:00:15.991Z,11.10
2018-08-09T14:02:46.362Z,11.60
2018-08-09T14:05:15.968Z,11.55
2018-08-09T14:07:45.507Z,11.10
2018-08-09T14:10:15.749Z,11.18
2018-08-09T14:12:45.250Z,10.58
2018-08-09T14:15:15.900Z,10.88
2018-08-09T14:17:45.583Z,11.33
2018-08-09T14:20:17.686Z,12.28
2018-08-09T14:22:47.188Z,11.97
2018-08-09T14:25:16.808Z,11.43
2018-08-09T14:27:46.560Z,12.33
2018-08-09T14:30:16.809Z,11.97
2018-08-09T14:32:46.688Z,11.25
2018-08-09T14:35:17.181Z,11.80
2018-08-09T14:37:47.559Z,12.85
2018-08-09T14:40:17.448Z,11.90
2018-08-09T14:42:47.250Z,12.25
2018-08-09T14:45:17.813Z,12.37
2018-08-09T14:47:47.545Z,12.63
2018-08-09T14:50:17.644Z,12.90
2018-08-09T14:52:47.285Z,12.35
2018-08-09T14:55:16.814Z,12.88
2018-08-09T14:57:46.607Z,12.53
2018-08-09T15:00:18.781Z,12.18
2018-08-09T15:02:49.213Z,12.73
2018-08-09T15:05:19.039Z,12.60
2018-08-09T15:07:48.726Z,12.28
2018-08-09T15:10:19.238Z,12.88
2018-08-09T15:12:48.794Z,12.40
2018-08-09T15:15:18.403Z,12.82
2018-08-09T15:17:47.886Z,12.30
2018-08-09T15:20:17.589Z,12.98
2018-08-09T15:22:48.124Z,12.68
2018-08-09T15:25:19.658Z,12.50
2018-08-09T15:27:49.351Z,11.88
2018-08-09T15:30:20.098Z,12.40
2018-08-09T15:32:49.808Z,13.85
2018-08-09T15:35:19.641Z,13.32
2018-08-09T15:37:49.442Z,13.08
2018-08-09T15:40:19.073Z,12.43
2018-08-09T15:42:48.689Z,12.85
2018-08-09T15:45:18.482Z,13.08
2018-08-09T15:47:48.239Z,13.22
2018-08-09T15:50:19.644Z,11.83
2018-08-09T15:52:49.350Z,12.50
2018-08-09T15:55:19.765Z,12.75
2018-08-09T15:57:49.377Z,13.68
2018-08-09T16:00:20.954Z,13.45
2018-08-09T16:02:50.650Z,12.95
2018-08-09T16:05:20.352Z,13.90
2018-08-09T16:07:49.964Z,13.13
2018-08-09T16:10:19.707Z,13.95
2018-08-09T16:12:49.632Z,13.60
2018-08-09T16:15:20.775Z,13.80
2018-08-09T16:17:50.656Z,14.00
2018-08-09T16:20:20.259Z,14.45
2018-08-09T16:22:51.030Z,14.38
2018-08-09T16:25:21.042Z,14.70
2018-08-09T16:27:50.954Z,14.25
2018-08-09T16:30:39.591Z,14.58
2018-08-09T16:33:14.526Z,15.10
2018-08-09T16:35:52.490Z,14.23
2018-08-09T16:38:26.273Z,15.00
2018-08-09T16:41:08.284Z,13.93
2018-08-09T16:59:39.812Z,15.43
2018-08-09T17:02:12.030Z,15.08
2018-08-09T17:04:43.602Z,14.80
2018-08-09T17:07:34.311Z,15.72
2018-08-09T17:10:26.211Z,14.98
2018-08-09T17:17:00.641Z,16.07
2018-08-09T17:19:39.154Z,15.48
2018-08-09T17:22:52.259Z,15.83
2018-08-09T17:25:37.082Z,15.50
2018-08-09T17:28:14.377Z,14.93
2018-08-09T17:31:08.738Z,15.32
2018-08-09T17:33:56.914Z,14.63
2018-08-09T17:36:57.538Z,14.75
2018-08-09T17:39:36.145Z,15.50
2018-08-09T17:42:16.071Z,16.42
2018-08-09T17:48:20.654Z,15.78
2018-08-09T17:51:12.052Z,15.43
2018-08-09T17:53:47.957Z,16.12
2018-08-09T17:56:38.497Z,15.70
2018-08-09T17:59:22.937Z,15.40
2018-08-09T18:02:01.348Z,14.83
2018-08-09T18:04:49.884Z,15.40
2018-08-09T18:07:47.105Z,15.83
2018-08-09T18:10:39.106Z,15.63
2018-08-09T18:13:24.978Z,14.63
2018-08-09T18:16:02.885Z,15.28
2018-08-09T18:18:56.972Z,15.70
2018-08-09T18:21:54.002Z,15.10
2018-08-09T18:24:31.931Z,15.23
2018-08-09T18:27:07.367Z,15.25
2018-08-09T18:29:44.978Z,15.40
2018-08-09T18:32:24.216Z,15.98
2018-08-09T18:35:01.476Z,15.23
2018-08-09T18:37:41.593Z,14.95
2018-08-09T18:40:19.702Z,15.08
2018-08-09T18:43:03.016Z,14.43
2018-08-09T18:45:38.200Z,14.20
2018-08-09T18:48:19.036Z,15.15
2018-08-09T18:51:02.632Z,14.18
2018-08-09T18:53:42.429Z,14.40
2018-08-09T18:56:28.456Z,15.53
2018-08-09T18:59:09.060Z,14.90
2018-08-09T19:01:45.341Z,14.28
2018-08-09T19:06:06.883Z,14.90
2018-08-09T19:09:24.895Z,13.58
2018-08-09T19:12:13.125Z,14.35
2018-08-09T19:14:58.831Z,14.58
2018-08-09T19:27:04.279Z,15.32
2018-08-09T19:29:41.581Z,14.80
2018-08-09T19:32:26.025Z,13.93
2018-08-09T19:35:17.942Z,14.87
2018-08-09T19:38:08.855Z,15.35
2018-08-09T19:40:38.504Z,14.58
2018-08-09T19:43:11.236Z,15.18
2018-08-09T19:49:18.297Z,14.70
2018-08-09T19:51:48.489Z,14.98
2018-08-09T19:54:27.209Z,14.60
2018-08-09T21:04:22.475Z,16.82
2018-08-09T21:06:52.049Z,16.90
2018-08-09T21:09:22.436Z,17.37
2018-08-09T21:11:52.069Z,17.40
2018-08-09T21:14:22.735Z,16.23
2018-08-09T21:16:52.906Z,16.67
2018-08-09T21:19:27.460Z,17.07
2018-08-09T21:22:08.657Z,17.70
2018-08-09T21:24:40.328Z,17.27
2018-08-09T21:27:09.765Z,17.40
2018-08-09T21:29:39.212Z,16.45
2018-08-09T21:32:08.570Z,17.25
2018-08-09T21:34:55.579Z,16.93
2018-08-09T21:37:48.418Z,16.42
2018-08-09T21:43:03.606Z,16.57
2018-08-09T21:45:33.036Z,16.60
2018-08-09T21:48:02.316Z,17.37
2018-08-09T21:50:31.728Z,16.75
2018-08-09T21:53:01.332Z,17.07
2018-08-09T21:56:08.903Z,17.55
2018-08-09T22:17:24.298Z,15.30
2018-08-09T22:19:58.864Z,15.70
2018-08-09T22:22:28.598Z,15.63
2018-08-09T22:24:57.952Z,15.72
2018-08-09T22:27:27.427Z,15.48
2018-08-09T22:33:21.455Z,16.95
2018-08-09T22:35:50.830Z,16.27
2018-08-09T22:38:20.147Z,15.28
2018-08-09T22:40:49.374Z,15.68
2018-08-09T22:43:18.803Z,17.05
2018-08-09T22:45:47.933Z,15.23
2018-08-09T22:48:17.265Z,15.98
2018-08-09T22:50:46.622Z,15.13
2018-08-09T22:53:16.802Z,15.80
2018-08-09T22:55:46.614Z,15.63
2018-08-09T22:58:16.330Z,15.45
2018-08-09T23:00:45.770Z,16.62
2018-08-09T23:03:15.458Z,16.32
2018-08-09T23:05:44.937Z,15.48
2018-08-09T23:08:15.501Z,15.05
2018-08-09T23:10:45.536Z,15.68
2018-08-09T23:13:15.651Z,15.15
2018-08-09T23:15:48.770Z,15.85
2018-08-09T23:18:22.841Z,15.68
2018-08-09T23:20:57.552Z,14.95
2018-08-09T23:23:28.227Z,15.65
2018-08-09T23:26:05.487Z,15.83
2018-08-09T23:28:35.859Z,14.93
2018-08-09T23:31:05.304Z,15.85
2018-08-09T23:33:34.733Z,14.95
2018-08-09T23:36:04.204Z,14.90
2018-08-09T23:38:33.535Z,16.85
2018-08-09T23:41:03.013Z,15.48
2018-08-09T23:43:32.440Z,15.55
2018-08-09T23:46:01.899Z,15.58
2018-08-09T23:48:31.380Z,15.13
2018-08-09T23:51:00.851Z,14.85
2018-08-09T23:53:30.166Z,15.05
2018-08-09T23:55:59.588Z,15.93
2018-08-09T23:58:28.830Z,16.65
